Leyba, New Mexico
Current Conditions -  °F | °C
As of 9:09 PM on Tuesday 21 Oct 2014 (Local Time) from KCQC Reporting Station
Overcast Overcast  
Wind Chill: 10°   Ceiling: 8000
Heat Index: 10°   Visibility: 10mi
Dew Point:   Wind: 13mph
Humidity: 93%   Direction: 170°S
Pressure: 30.16"   Gusts: NA
Location:  35.2352°N, 105.52°W
Report Text: KCQC 220309Z AUTO 17011KT 10SM FEW003 OVC080 10/09 A3016 RMK AO2 T01000089
Loading
Personal Weather Stations






























Interactive Weather Map
Tropical Storm Tracking
New forecast layout! Learn more

10-Day Weather Forecast

Advertisements
Track Severe Weather on mobile